sensor_id;sensor_type;location;lat;lon;timestamp;P1;durP1;ratioP1;P2;durP2;ratioP2
7661;SDS011;30314;48.184;11.510;2023-01-16T00:02:04;1.47;;;0.60;;
7661;SDS011;30314;48.184;11.510;2023-01-16T00:04:36;1.00;;;0.40;;
7661;SDS011;30314;48.184;11.510;2023-01-16T00:07:03;1.47;;;0.60;;
7661;SDS011;30314;48.184;11.510;2023-01-16T00:09:31;3.83;;;0.87;;
7661;SDS011;30314;48.184;11.510;2023-01-16T00:12:02;2.50;;;1.33;;
7661;SDS011;30314;48.184;11.510;2023-01-16T00:14:30;1.97;;;0.80;;
7661;SDS011;30314;48.184;11.510;2023-01-16T00:16:59;4.70;;;0.93;;
7661;SDS011;30314;48.184;11.510;2023-01-16T00:19:27;1.77;;;0.63;;
7661;SDS011;30314;48.184;11.510;2023-01-16T00:22:00;2.07;;;0.67;;
7661;SDS011;30314;48.184;11.510;2023-01-16T00:24:28;0.90;;;0.50;;
7661;SDS011;30314;48.184;11.510;2023-01-16T00:26:58;2.60;;;0.60;;
7661;SDS011;30314;48.184;11.510;2023-01-16T00:29:26;3.23;;;0.50;;
7661;SDS011;30314;48.184;11.510;2023-01-16T00:31:53;1.23;;;0.40;;
7661;SDS011;30314;48.184;11.510;2023-01-16T00:34:23;2.30;;;0.50;;
7661;SDS011;30314;48.184;11.510;2023-01-16T00:36:51;5.83;;;1.43;;
7661;SDS011;30314;48.184;11.510;2023-01-16T00:39:35;1.20;;;0.60;;
7661;SDS011;30314;48.184;11.510;2023-01-16T00:42:04;1.10;;;0.37;;
7661;SDS011;30314;48.184;11.510;2023-01-16T00:44:32;5.23;;;1.00;;
7661;SDS011;30314;48.184;11.510;2023-01-16T00:47:01;0.90;;;0.50;;
7661;SDS011;30314;48.184;11.510;2023-01-16T00:49:29;2.40;;;0.53;;
7661;SDS011;30314;48.184;11.510;2023-01-16T00:51:57;2.70;;;0.40;;
7661;SDS011;30314;48.184;11.510;2023-01-16T00:54:24;1.93;;;0.40;;
7661;SDS011;30314;48.184;11.510;2023-01-16T00:56:54;1.47;;;0.60;;
7661;SDS011;30314;48.184;11.510;2023-01-16T00:59:21;1.80;;;0.40;;
7661;SDS011;30314;48.184;11.510;2023-01-16T01:01:49;1.03;;;0.37;;
7661;SDS011;30314;48.184;11.510;2023-01-16T01:04:17;3.37;;;0.40;;
7661;SDS011;30314;48.184;11.510;2023-01-16T01:06:45;2.77;;;0.60;;
7661;SDS011;30314;48.184;11.510;2023-01-16T01:09:13;1.00;;;0.40;;
7661;SDS011;30314;48.184;11.510;2023-01-16T01:11:40;0.90;;;0.50;;
7661;SDS011;30314;48.184;11.510;2023-01-16T01:14:09;2.80;;;0.50;;
7661;SDS011;30314;48.184;11.510;2023-01-16T01:16:37;0.90;;;0.47;;
7661;SDS011;30314;48.184;11.510;2023-01-16T01:19:06;2.47;;;0.60;;
7661;SDS011;30314;48.184;11.510;2023-01-16T01:21:34;1.10;;;0.50;;
7661;SDS011;30314;48.184;11.510;2023-01-16T01:24:01;1.23;;;0.60;;
7661;SDS011;30314;48.184;11.510;2023-01-16T01:26:32;1.17;;;0.43;;
7661;SDS011;30314;48.184;11.510;2023-01-16T01:29:03;3.07;;;0.50;;
7661;SDS011;30314;48.184;11.510;2023-01-16T01:31:32;1.60;;;0.40;;
7661;SDS011;30314;48.184;11.510;2023-01-16T01:34:00;2.90;;;0.40;;
7661;SDS011;30314;48.184;11.510;2023-01-16T01:36:28;1.67;;;0.40;;
7661;SDS011;30314;48.184;11.510;2023-01-16T01:38:56;1.30;;;0.77;;
7661;SDS011;30314;48.184;11.510;2023-01-16T01:41:23;1.80;;;0.50;;
7661;SDS011;30314;48.184;11.510;2023-01-16T01:43:52;3.07;;;0.67;;
7661;SDS011;30314;48.184;11.510;2023-01-16T01:46:22;1.80;;;0.60;;
7661;SDS011;30314;48.184;11.510;2023-01-16T01:48:56;1.33;;;0.50;;
7661;SDS011;30314;48.184;11.510;2023-01-16T01:51:27;1.17;;;0.50;;
7661;SDS011;30314;48.184;11.510;2023-01-16T01:54:00;4.00;;;0.70;;
7661;SDS011;30314;48.184;11.510;2023-01-16T01:56:33;3.53;;;0.43;;
7661;SDS011;30314;48.184;11.510;2023-01-16T01:59:05;1.00;;;0.50;;
7661;SDS011;30314;48.184;11.510;2023-01-16T02:01:37;1.80;;;0.50;;
7661;SDS011;30314;48.184;11.510;2023-01-16T02:04:09;1.50;;;0.50;;
7661;SDS011;30314;48.184;11.510;2023-01-16T02:06:43;1.03;;;0.33;;
7661;SDS011;30314;48.184;11.510;2023-01-16T02:09:13;1.10;;;0.40;;
7661;SDS011;30314;48.184;11.510;2023-01-16T02:11:43;3.47;;;0.30;;
7661;SDS011;30314;48.184;11.510;2023-01-16T02:14:16;1.73;;;0.40;;
7661;SDS011;30314;48.184;11.510;2023-01-16T02:16:45;0.77;;;0.30;;
7661;SDS011;30314;48.184;11.510;2023-01-16T02:19:34;1.77;;;0.33;;
7661;SDS011;30314;48.184;11.510;2023-01-16T02:25:33;1.00;;;0.40;;
7661;SDS011;30314;48.184;11.510;2023-01-16T02:28:25;4.60;;;1.27;;
7661;SDS011;30314;48.184;11.510;2023-01-16T02:31:15;3.53;;;0.33;;
7661;SDS011;30314;48.184;11.510;2023-01-16T02:33:54;1.30;;;0.50;;
7661;SDS011;30314;48.184;11.510;2023-01-16T02:36:36;0.80;;;0.30;;
7661;SDS011;30314;48.184;11.510;2023-01-16T02:39:14;0.80;;;0.30;;
7661;SDS011;30314;48.184;11.510;2023-01-16T02:41:49;0.80;;;0.30;;
7661;SDS011;30314;48.184;11.510;2023-01-16T02:44:23;1.27;;;0.70;;
7661;SDS011;30314;48.184;11.510;2023-01-16T02:47:08;0.80;;;0.40;;
7661;SDS011;30314;48.184;11.510;2023-01-16T02:49:46;1.30;;;0.30;;
7661;SDS011;30314;48.184;11.510;2023-01-16T02:52:20;1.30;;;0.40;;
7661;SDS011;30314;48.184;11.510;2023-01-16T02:54:53;0.90;;;0.30;;
7661;SDS011;30314;48.184;11.510;2023-01-16T02:57:27;1.00;;;0.33;;
7661;SDS011;30314;48.184;11.510;2023-01-16T02:59:58;1.10;;;0.40;;
7661;SDS011;30314;48.184;11.510;2023-01-16T03:02:28;1.33;;;0.40;;
7661;SDS011;30314;48.184;11.510;2023-01-16T03:04:55;1.30;;;0.53;;
7661;SDS011;30314;48.184;11.510;2023-01-16T03:07:47;0.80;;;0.30;;
7661;SDS011;30314;48.184;11.510;2023-01-16T03:10:34;0.83;;;0.30;;
7661;SDS011;30314;48.184;11.510;2023-01-16T03:13:24;1.53;;;0.50;;
7661;SDS011;30314;48.184;11.510;2023-01-16T03:16:02;0.90;;;0.47;;
7661;SDS011;30314;48.184;11.510;2023-01-16T03:18:44;1.77;;;0.60;;
7661;SDS011;30314;48.184;11.510;2023-01-16T03:21:18;1.70;;;0.47;;
7661;SDS011;30314;48.184;11.510;2023-01-16T03:23:53;1.67;;;0.47;;
7661;SDS011;30314;48.184;11.510;2023-01-16T03:26:26;1.73;;;0.50;;
7661;SDS011;30314;48.184;11.510;2023-01-16T03:28:57;6.07;;;1.00;;
7661;SDS011;30314;48.184;11.510;2023-01-16T03:31:33;1.30;;;0.40;;
7661;SDS011;30314;48.184;11.510;2023-01-16T03:34:12;2.57;;;0.63;;
7661;SDS011;30314;48.184;11.510;2023-01-16T03:36:49;1.73;;;0.50;;
7661;SDS011;30314;48.184;11.510;2023-01-16T03:39:22;1.00;;;0.47;;
7661;SDS011;30314;48.184;11.510;2023-01-16T03:41:53;1.20;;;0.30;;
7661;SDS011;30314;48.184;11.510;2023-01-16T03:44:26;0.80;;;0.30;;
7661;SDS011;30314;48.184;11.510;2023-01-16T03:46:57;1.00;;;0.40;;
7661;SDS011;30314;48.184;11.510;2023-01-16T03:49:29;0.90;;;0.40;;
7661;SDS011;30314;48.184;11.510;2023-01-16T03:52:02;0.93;;;0.30;;
7661;SDS011;30314;48.184;11.510;2023-01-16T03:54:32;1.13;;;0.47;;
7661;SDS011;30314;48.184;11.510;2023-01-16T03:57:06;1.47;;;0.30;;
7661;SDS011;30314;48.184;11.510;2023-01-16T03:59:37;1.87;;;0.60;;
7661;SDS011;30314;48.184;11.510;2023-01-16T04:02:09;1.83;;;0.50;;
7661;SDS011;30314;48.184;11.510;2023-01-16T04:04:43;1.27;;;0.33;;
7661;SDS011;30314;48.184;11.510;2023-01-16T04:07:17;2.63;;;0.67;;
7661;SDS011;30314;48.184;11.510;2023-01-16T04:09:51;2.10;;;0.60;;
7661;SDS011;30314;48.184;11.510;2023-01-16T04:12:23;4.40;;;0.43;;
7661;SDS011;30314;48.184;11.510;2023-01-16T04:14:57;0.80;;;0.40;;
7661;SDS011;30314;48.184;11.510;2023-01-16T04:17:27;1.17;;;0.40;;
7661;SDS011;30314;48.184;11.510;2023-01-16T04:19:58;1.50;;;0.67;;
7661;SDS011;30314;48.184;11.510;2023-01-16T04:22:26;1.37;;;0.60;;
7661;SDS011;30314;48.184;11.510;2023-01-16T04:24:56;3.43;;;1.00;;
7661;SDS011;30314;48.184;11.510;2023-01-16T04:27:25;2.53;;;0.83;;
7661;SDS011;30314;48.184;11.510;2023-01-16T04:29:52;2.03;;;0.70;;
7661;SDS011;30314;48.184;11.510;2023-01-16T04:32:20;1.10;;;0.60;;
7661;SDS011;30314;48.184;11.510;2023-01-16T04:34:48;1.13;;;0.50;;
7661;SDS011;30314;48.184;11.510;2023-01-16T04:37:17;1.30;;;0.50;;
7661;SDS011;30314;48.184;11.510;2023-01-16T04:39:45;2.23;;;0.60;;
7661;SDS011;30314;48.184;11.510;2023-01-16T04:42:14;2.93;;;0.83;;
7661;SDS011;30314;48.184;11.510;2023-01-16T04:44:41;0.93;;;0.53;;
7661;SDS011;30314;48.184;11.510;2023-01-16T04:47:09;2.03;;;0.77;;
7661;SDS011;30314;48.184;11.510;2023-01-16T04:49:37;1.20;;;0.63;;
7661;SDS011;30314;48.184;11.510;2023-01-16T04:52:05;0.80;;;0.43;;
7661;SDS011;30314;48.184;11.510;2023-01-16T04:54:34;1.23;;;0.67;;
7661;SDS011;30314;48.184;11.510;2023-01-16T04:57:02;2.00;;;0.63;;
7661;SDS011;30314;48.184;11.510;2023-01-16T04:59:30;2.00;;;0.90;;
7661;SDS011;30314;48.184;11.510;2023-01-16T05:01:57;1.40;;;0.60;;
7661;SDS011;30314;48.184;11.510;2023-01-16T05:04:25;11.23;;;0.93;;
7661;SDS011;30314;48.184;11.510;2023-01-16T05:06:53;3.77;;;1.00;;
7661;SDS011;30314;48.184;11.510;2023-01-16T05:09:21;1.67;;;0.80;;
7661;SDS011;30314;48.184;11.510;2023-01-16T05:11:49;1.10;;;0.60;;
7661;SDS011;30314;48.184;11.510;2023-01-16T05:14:17;1.83;;;0.77;;
7661;SDS011;30314;48.184;11.510;2023-01-16T05:16:45;3.77;;;0.73;;
7661;SDS011;30314;48.184;11.510;2023-01-16T05:19:12;1.57;;;0.80;;
7661;SDS011;30314;48.184;11.510;2023-01-16T05:21:40;2.00;;;0.90;;
7661;SDS011;30314;48.184;11.510;2023-01-16T05:24:08;1.30;;;0.50;;
7661;SDS011;30314;48.184;11.510;2023-01-16T05:26:35;1.77;;;0.67;;
7661;SDS011;30314;48.184;11.510;2023-01-16T05:29:04;1.97;;;0.77;;
7661;SDS011;30314;48.184;11.510;2023-01-16T05:31:32;1.03;;;0.67;;
7661;SDS011;30314;48.184;11.510;2023-01-16T05:34:00;3.50;;;1.23;;
7661;SDS011;30314;48.184;11.510;2023-01-16T05:36:27;3.30;;;0.70;;
7661;SDS011;30314;48.184;11.510;2023-01-16T05:38:55;4.57;;;0.87;;
7661;SDS011;30314;48.184;11.510;2023-01-16T05:41:22;1.30;;;0.67;;
7661;SDS011;30314;48.184;11.510;2023-01-16T05:43:50;2.80;;;0.80;;
7661;SDS011;30314;48.184;11.510;2023-01-16T05:46:19;1.67;;;0.63;;
7661;SDS011;30314;48.184;11.510;2023-01-16T05:48:47;2.27;;;0.50;;
7661;SDS011;30314;48.184;11.510;2023-01-16T05:51:14;1.20;;;0.70;;
7661;SDS011;30314;48.184;11.510;2023-01-16T05:53:43;1.40;;;0.47;;
7661;SDS011;30314;48.184;11.510;2023-01-16T05:56:10;0.80;;;0.40;;
7661;SDS011;30314;48.184;11.510;2023-01-16T05:58:40;1.63;;;0.73;;
7661;SDS011;30314;48.184;11.510;2023-01-16T06:01:07;0.93;;;0.53;;
7661;SDS011;30314;48.184;11.510;2023-01-16T06:03:36;1.17;;;0.57;;
7661;SDS011;30314;48.184;11.510;2023-01-16T06:06:04;1.43;;;0.70;;
7661;SDS011;30314;48.184;11.510;2023-01-16T06:08:32;1.90;;;1.00;;
7661;SDS011;30314;48.184;11.510;2023-01-16T06:11:00;1.93;;;0.80;;
7661;SDS011;30314;48.184;11.510;2023-01-16T06:13:27;1.70;;;0.60;;
7661;SDS011;30314;48.184;11.510;2023-01-16T06:15:55;1.00;;;0.67;;
7661;SDS011;30314;48.184;11.510;2023-01-16T06:18:23;2.33;;;0.93;;
7661;SDS011;30314;48.184;11.510;2023-01-16T06:20:52;1.40;;;0.60;;
7661;SDS011;30314;48.184;11.510;2023-01-16T06:23:19;2.03;;;0.70;;
7661;SDS011;30314;48.184;11.510;2023-01-16T06:25:48;1.50;;;0.67;;
7661;SDS011;30314;48.184;11.510;2023-01-16T06:28:16;3.07;;;0.80;;
7661;SDS011;30314;48.184;11.510;2023-01-16T06:30:43;1.37;;;0.70;;
7661;SDS011;30314;48.184;11.510;2023-01-16T06:33:11;1.30;;;0.60;;
7661;SDS011;30314;48.184;11.510;2023-01-16T06:35:39;1.20;;;0.60;;
7661;SDS011;30314;48.184;11.510;2023-01-16T06:38:08;2.80;;;0.80;;
7661;SDS011;30314;48.184;11.510;2023-01-16T06:40:35;1.20;;;0.70;;
7661;SDS011;30314;48.184;11.510;2023-01-16T06:43:03;1.67;;;0.60;;
7661;SDS011;30314;48.184;11.510;2023-01-16T06:45:31;0.80;;;0.40;;
7661;SDS011;30314;48.184;11.510;2023-01-16T06:47:58;2.10;;;0.80;;
7661;SDS011;30314;48.184;11.510;2023-01-16T06:50:29;2.30;;;0.53;;
7661;SDS011;30314;48.184;11.510;2023-01-16T06:52:56;1.13;;;0.60;;
7661;SDS011;30314;48.184;11.510;2023-01-16T06:55:26;3.27;;;0.80;;
7661;SDS011;30314;48.184;11.510;2023-01-16T06:57:53;3.43;;;0.67;;
7661;SDS011;30314;48.184;11.510;2023-01-16T07:00:21;2.17;;;0.73;;
7661;SDS011;30314;48.184;11.510;2023-01-16T07:02:50;1.30;;;0.73;;
7661;SDS011;30314;48.184;11.510;2023-01-16T07:05:21;3.00;;;0.60;;
7661;SDS011;30314;48.184;11.510;2023-01-16T07:07:49;1.20;;;0.60;;
7661;SDS011;30314;48.184;11.510;2023-01-16T07:10:17;2.17;;;0.80;;
7661;SDS011;30314;48.184;11.510;2023-01-16T07:12:47;2.20;;;0.67;;
7661;SDS011;30314;48.184;11.510;2023-01-16T07:15:15;3.67;;;0.77;;
7661;SDS011;30314;48.184;11.510;2023-01-16T07:18:01;1.83;;;0.67;;
7661;SDS011;30314;48.184;11.510;2023-01-16T07:20:48;3.53;;;0.70;;
7661;SDS011;30314;48.184;11.510;2023-01-16T07:23:37;1.40;;;0.70;;
7661;SDS011;30314;48.184;11.510;2023-01-16T07:26:07;2.03;;;0.77;;
7661;SDS011;30314;48.184;11.510;2023-01-16T07:28:38;2.80;;;1.17;;
7661;SDS011;30314;48.184;11.510;2023-01-16T07:31:06;1.50;;;0.60;;
7661;SDS011;30314;48.184;11.510;2023-01-16T07:33:34;1.77;;;0.83;;
7661;SDS011;30314;48.184;11.510;2023-01-16T07:36:02;3.77;;;0.83;;
7661;SDS011;30314;48.184;11.510;2023-01-16T07:38:30;3.17;;;1.73;;
7661;SDS011;30314;48.184;11.510;2023-01-16T07:40:58;3.90;;;0.70;;
7661;SDS011;30314;48.184;11.510;2023-01-16T07:43:26;2.10;;;1.00;;
7661;SDS011;30314;48.184;11.510;2023-01-16T07:45:55;5.43;;;1.53;;
7661;SDS011;30314;48.184;11.510;2023-01-16T07:48:23;2.03;;;0.90;;
7661;SDS011;30314;48.184;11.510;2023-01-16T07:50:51;1.40;;;0.60;;
7661;SDS011;30314;48.184;11.510;2023-01-16T07:53:21;2.37;;;0.90;;
7661;SDS011;30314;48.184;11.510;2023-01-16T07:55:50;6.30;;;1.20;;
7661;SDS011;30314;48.184;11.510;2023-01-16T07:58:19;1.77;;;1.03;;
7661;SDS011;30314;48.184;11.510;2023-01-16T08:00:47;2.40;;;0.97;;
7661;SDS011;30314;48.184;11.510;2023-01-16T08:03:16;2.90;;;0.83;;
7661;SDS011;30314;48.184;11.510;2023-01-16T08:05:44;1.10;;;0.57;;
7661;SDS011;30314;48.184;11.510;2023-01-16T08:08:12;1.57;;;0.77;;
7661;SDS011;30314;48.184;11.510;2023-01-16T08:10:40;1.30;;;0.63;;
7661;SDS011;30314;48.184;11.510;2023-01-16T08:13:08;1.53;;;0.63;;
7661;SDS011;30314;48.184;11.510;2023-01-16T08:15:36;1.70;;;0.50;;
7661;SDS011;30314;48.184;11.510;2023-01-16T08:18:03;4.17;;;0.70;;
7661;SDS011;30314;48.184;11.510;2023-01-16T08:20:32;1.73;;;0.63;;
7661;SDS011;30314;48.184;11.510;2023-01-16T08:23:00;0.90;;;0.50;;
7661;SDS011;30314;48.184;11.510;2023-01-16T08:25:28;0.90;;;0.40;;
7661;SDS011;30314;48.184;11.510;2023-01-16T08:27:55;1.20;;;0.57;;
7661;SDS011;30314;48.184;11.510;2023-01-16T08:30:23;1.70;;;0.50;;
7661;SDS011;30314;48.184;11.510;2023-01-16T08:32:56;1.13;;;0.60;;
7661;SDS011;30314;48.184;11.510;2023-01-16T08:35:24;2.10;;;0.57;;
7661;SDS011;30314;48.184;11.510;2023-01-16T08:37:53;1.43;;;0.70;;
7661;SDS011;30314;48.184;11.510;2023-01-16T08:40:22;2.80;;;0.90;;
7661;SDS011;30314;48.184;11.510;2023-01-16T08:42:51;1.93;;;0.80;;
7661;SDS011;30314;48.184;11.510;2023-01-16T08:45:48;1.50;;;0.90;;
7661;SDS011;30314;48.184;11.510;2023-01-16T08:48:48;2.20;;;0.93;;
7661;SDS011;30314;48.184;11.510;2023-01-16T08:51:33;2.63;;;1.07;;
7661;SDS011;30314;48.184;11.510;2023-01-16T08:54:03;1.57;;;1.20;;
7661;SDS011;30314;48.184;11.510;2023-01-16T08:56:31;1.50;;;1.10;;
7661;SDS011;30314;48.184;11.510;2023-01-16T08:58:58;2.13;;;1.10;;
7661;SDS011;30314;48.184;11.510;2023-01-16T09:01:26;1.40;;;0.90;;
7661;SDS011;30314;48.184;11.510;2023-01-16T09:03:54;4.60;;;0.97;;
7661;SDS011;30314;48.184;11.510;2023-01-16T09:06:21;1.73;;;0.97;;
7661;SDS011;30314;48.184;11.510;2023-01-16T09:08:50;1.70;;;1.33;;
7661;SDS011;30314;48.184;11.510;2023-01-16T09:11:19;1.10;;;0.70;;
7661;SDS011;30314;48.184;11.510;2023-01-16T09:14:03;2.30;;;0.97;;
7661;SDS011;30314;48.184;11.510;2023-01-16T09:16:49;2.17;;;1.00;;
7661;SDS011;30314;48.184;11.510;2023-01-16T09:19:17;2.00;;;0.70;;
7661;SDS011;30314;48.184;11.510;2023-01-16T09:21:45;1.37;;;0.70;;
7661;SDS011;30314;48.184;11.510;2023-01-16T09:24:12;1.67;;;1.17;;
7661;SDS011;30314;48.184;11.510;2023-01-16T09:26:41;1.90;;;1.07;;
7661;SDS011;30314;48.184;11.510;2023-01-16T09:29:09;2.20;;;1.23;;
7661;SDS011;30314;48.184;11.510;2023-01-16T09:31:36;1.37;;;0.90;;
7661;SDS011;30314;48.184;11.510;2023-01-16T09:34:04;1.90;;;0.90;;
7661;SDS011;30314;48.184;11.510;2023-01-16T09:36:32;3.97;;;0.80;;
7661;SDS011;30314;48.184;11.510;2023-01-16T09:38:59;6.90;;;1.13;;
7661;SDS011;30314;48.184;11.510;2023-01-16T09:41:27;3.00;;;1.03;;
7661;SDS011;30314;48.184;11.510;2023-01-16T09:44:22;2.40;;;1.07;;
7661;SDS011;30314;48.184;11.510;2023-01-16T09:46:50;2.03;;;0.80;;
7661;SDS011;30314;48.184;11.510;2023-01-16T09:49:20;1.70;;;1.07;;
7661;SDS011;30314;48.184;11.510;2023-01-16T09:51:52;1.77;;;0.70;;
7661;SDS011;30314;48.184;11.510;2023-01-16T09:54:44;2.07;;;1.23;;
7661;SDS011;30314;48.184;11.510;2023-01-16T09:57:34;6.77;;;2.63;;
7661;SDS011;30314;48.184;11.510;2023-01-16T10:00:23;5.10;;;1.60;;
7661;SDS011;30314;48.184;11.510;2023-01-16T10:02:53;7.67;;;2.43;;
7661;SDS011;30314;48.184;11.510;2023-01-16T10:05:21;8.93;;;4.10;;
7661;SDS011;30314;48.184;11.510;2023-01-16T10:07:56;19.67;;;7.73;;
7661;SDS011;30314;48.184;11.510;2023-01-16T10:10:36;15.87;;;7.00;;
7661;SDS011;30314;48.184;11.510;2023-01-16T10:13:19;19.00;;;7.00;;
7661;SDS011;30314;48.184;11.510;2023-01-16T10:16:08;3.70;;;1.70;;
7661;SDS011;30314;48.184;11.510;2023-01-16T10:18:42;1.83;;;1.07;;
7661;SDS011;30314;48.184;11.510;2023-01-16T10:24:18;1.33;;;0.90;;
7661;SDS011;30314;48.184;11.510;2023-01-16T10:26:55;2.33;;;1.20;;
7661;SDS011;30314;48.184;11.510;2023-01-16T10:29:25;2.33;;;1.03;;
7661;SDS011;30314;48.184;11.510;2023-01-16T10:32:00;2.27;;;0.80;;
7661;SDS011;30314;48.184;11.510;2023-01-16T10:34:33;2.23;;;1.30;;
7661;SDS011;30314;48.184;11.510;2023-01-16T10:37:06;1.20;;;0.83;;
7661;SDS011;30314;48.184;11.510;2023-01-16T10:39:35;3.37;;;0.80;;
7661;SDS011;30314;48.184;11.510;2023-01-16T10:42:11;8.07;;;0.83;;
7661;SDS011;30314;48.184;11.510;2023-01-16T10:44:58;1.43;;;0.70;;
7661;SDS011;30314;48.184;11.510;2023-01-16T10:47:57;2.17;;;0.83;;
7661;SDS011;30314;48.184;11.510;2023-01-16T10:50:43;2.53;;;1.47;;
7661;SDS011;30314;48.184;11.510;2023-01-16T10:53:12;3.40;;;1.23;;
7661;SDS011;30314;48.184;11.510;2023-01-16T10:55:42;1.10;;;0.70;;
7661;SDS011;30314;48.184;11.510;2023-01-16T10:58:16;1.60;;;0.67;;
7661;SDS011;30314;48.184;11.510;2023-01-16T11:00:50;1.37;;;0.70;;
7661;SDS011;30314;48.184;11.510;2023-01-16T11:03:22;2.43;;;0.90;;
7661;SDS011;30314;48.184;11.510;2023-01-16T11:06:05;3.53;;;0.30;;
7661;SDS011;30314;48.184;11.510;2023-01-16T11:08:35;1.57;;;0.70;;
7661;SDS011;30314;48.184;11.510;2023-01-16T11:11:03;1.23;;;0.63;;
7661;SDS011;30314;48.184;11.510;2023-01-16T11:13:51;1.47;;;0.60;;
7661;SDS011;30314;48.184;11.510;2023-01-16T11:16:37;2.03;;;0.70;;
7661;SDS011;30314;48.184;11.510;2023-01-16T11:19:24;3.80;;;0.60;;
7661;SDS011;30314;48.184;11.510;2023-01-16T11:21:55;2.90;;;1.57;;
7661;SDS011;30314;48.184;11.510;2023-01-16T11:24:28;1.50;;;0.60;;
7661;SDS011;30314;48.184;11.510;2023-01-16T11:26:59;1.57;;;0.70;;
7661;SDS011;30314;48.184;11.510;2023-01-16T11:29:29;2.63;;;0.77;;
7661;SDS011;30314;48.184;11.510;2023-01-16T11:32:05;2.50;;;0.87;;
7661;SDS011;30314;48.184;11.510;2023-01-16T11:34:37;1.77;;;0.50;;
7661;SDS011;30314;48.184;11.510;2023-01-16T11:37:11;2.40;;;0.73;;
7661;SDS011;30314;48.184;11.510;2023-01-16T11:39:41;2.27;;;0.70;;
7661;SDS011;30314;48.184;11.510;2023-01-16T11:42:15;1.93;;;0.70;;
7661;SDS011;30314;48.184;11.510;2023-01-16T11:44:58;1.40;;;0.47;;
7661;SDS011;30314;48.184;11.510;2023-01-16T11:47:50;2.50;;;0.60;;
7661;SDS011;30314;48.184;11.510;2023-01-16T11:52:53;1.20;;;0.60;;
7661;SDS011;30314;48.184;11.510;2023-01-16T11:55:21;1.83;;;0.87;;
7661;SDS011;30314;48.184;11.510;2023-01-16T11:57:52;1.10;;;0.60;;
7661;SDS011;30314;48.184;11.510;2023-01-16T12:00:40;1.27;;;0.70;;
7661;SDS011;30314;48.184;11.510;2023-01-16T12:03:38;1.10;;;0.50;;
7661;SDS011;30314;48.184;11.510;2023-01-16T12:06:17;1.47;;;1.00;;
7661;SDS011;30314;48.184;11.510;2023-01-16T12:09:03;2.37;;;0.80;;
7661;SDS011;30314;48.184;11.510;2023-01-16T12:12:00;2.47;;;0.80;;
7661;SDS011;30314;48.184;11.510;2023-01-16T12:15:11;2.10;;;0.80;;
7661;SDS011;30314;48.184;11.510;2023-01-16T12:17:52;1.27;;;0.70;;
7661;SDS011;30314;48.184;11.510;2023-01-16T12:20:35;1.80;;;0.73;;
7661;SDS011;30314;48.184;11.510;2023-01-16T12:23:25;2.13;;;0.90;;
7661;SDS011;30314;48.184;11.510;2023-01-16T12:26:02;2.27;;;0.93;;
7661;SDS011;30314;48.184;11.510;2023-01-16T12:28:42;1.83;;;0.70;;
7661;SDS011;30314;48.184;11.510;2023-01-16T12:31:23;4.80;;;0.90;;
7661;SDS011;30314;48.184;11.510;2023-01-16T12:34:07;1.57;;;0.83;;
7661;SDS011;30314;48.184;11.510;2023-01-16T12:36:47;5.73;;;1.00;;
7661;SDS011;30314;48.184;11.510;2023-01-16T12:39:31;1.47;;;0.80;;
7661;SDS011;30314;48.184;11.510;2023-01-16T12:42:08;1.53;;;0.80;;
7661;SDS011;30314;48.184;11.510;2023-01-16T12:45:07;1.30;;;0.70;;
7661;SDS011;30314;48.184;11.510;2023-01-16T12:47:50;1.23;;;0.83;;
7661;SDS011;30314;48.184;11.510;2023-01-16T12:50:32;2.80;;;0.70;;
7661;SDS011;30314;48.184;11.510;2023-01-16T12:53:19;1.47;;;0.50;;
7661;SDS011;30314;48.184;11.510;2023-01-16T12:56:05;1.13;;;0.50;;
7661;SDS011;30314;48.184;11.510;2023-01-16T12:58:50;1.37;;;0.70;;
7661;SDS011;30314;48.184;11.510;2023-01-16T13:01:22;2.87;;;0.87;;
7661;SDS011;30314;48.184;11.510;2023-01-16T13:03:52;1.93;;;0.70;;
7661;SDS011;30314;48.184;11.510;2023-01-16T13:06:27;1.10;;;0.60;;
7661;SDS011;30314;48.184;11.510;2023-01-16T13:09:02;0.93;;;0.70;;
7661;SDS011;30314;48.184;11.510;2023-01-16T13:11:38;2.13;;;0.80;;
7661;SDS011;30314;48.184;11.510;2023-01-16T13:14:36;2.30;;;1.00;;
7661;SDS011;30314;48.184;11.510;2023-01-16T13:17:05;3.93;;;1.87;;
7661;SDS011;30314;48.184;11.510;2023-01-16T13:19:55;3.13;;;1.10;;
7661;SDS011;30314;48.184;11.510;2023-01-16T13:22:24;4.53;;;1.20;;
7661;SDS011;30314;48.184;11.510;2023-01-16T13:24:55;2.77;;;1.37;;
7661;SDS011;30314;48.184;11.510;2023-01-16T13:27:35;3.50;;;1.40;;
7661;SDS011;30314;48.184;11.510;2023-01-16T13:30:08;1.40;;;0.70;;
7661;SDS011;30314;48.184;11.510;2023-01-16T13:32:40;3.63;;;1.20;;
7661;SDS011;30314;48.184;11.510;2023-01-16T13:35:12;4.70;;;1.10;;
7661;SDS011;30314;48.184;11.510;2023-01-16T13:41:08;1.70;;;1.10;;
7661;SDS011;30314;48.184;11.510;2023-01-16T13:43:43;1.50;;;1.33;;
7661;SDS011;30314;48.184;11.510;2023-01-16T13:46:32;2.73;;;1.70;;
7661;SDS011;30314;48.184;11.510;2023-01-16T13:49:01;2.60;;;1.17;;
7661;SDS011;30314;48.184;11.510;2023-01-16T13:51:39;3.27;;;1.40;;
7661;SDS011;30314;48.184;11.510;2023-01-16T13:54:12;4.77;;;1.23;;
7661;SDS011;30314;48.184;11.510;2023-01-16T13:56:42;1.63;;;0.97;;
7661;SDS011;30314;48.184;11.510;2023-01-16T13:59:17;2.03;;;0.90;;
7661;SDS011;30314;48.184;11.510;2023-01-16T14:01:56;2.73;;;1.40;;
7661;SDS011;30314;48.184;11.510;2023-01-16T14:04:25;5.63;;;1.53;;
7661;SDS011;30314;48.184;11.510;2023-01-16T14:06:56;3.30;;;2.00;;
7661;SDS011;30314;48.184;11.510;2023-01-16T14:12:42;6.10;;;1.20;;
7661;SDS011;30314;48.184;11.510;2023-01-16T14:15:43;3.60;;;1.77;;
7661;SDS011;30314;48.184;11.510;2023-01-16T14:18:35;2.27;;;1.20;;
7661;SDS011;30314;48.184;11.510;2023-01-16T14:21:08;4.47;;;1.70;;
7661;SDS011;30314;48.184;11.510;2023-01-16T14:23:44;2.10;;;1.23;;
7661;SDS011;30314;48.184;11.510;2023-01-16T14:26:34;2.80;;;1.20;;
7661;SDS011;30314;48.184;11.510;2023-01-16T14:29:12;2.97;;;1.60;;
7661;SDS011;30314;48.184;11.510;2023-01-16T14:31:50;3.23;;;1.40;;
7661;SDS011;30314;48.184;11.510;2023-01-16T14:34:20;2.87;;;1.37;;
7661;SDS011;30314;48.184;11.510;2023-01-16T14:36:50;1.90;;;1.33;;
7661;SDS011;30314;48.184;11.510;2023-01-16T14:39:31;2.40;;;1.50;;
7661;SDS011;30314;48.184;11.510;2023-01-16T14:42:02;4.80;;;1.17;;
7661;SDS011;30314;48.184;11.510;2023-01-16T14:44:57;2.73;;;1.53;;
7661;SDS011;30314;48.184;11.510;2023-01-16T14:47:52;3.70;;;1.63;;
7661;SDS011;30314;48.184;11.510;2023-01-16T14:50:42;5.03;;;1.70;;
7661;SDS011;30314;48.184;11.510;2023-01-16T14:53:29;4.17;;;1.80;;
7661;SDS011;30314;48.184;11.510;2023-01-16T14:56:18;2.37;;;1.40;;
7661;SDS011;30314;48.184;11.510;2023-01-16T14:58:54;1.70;;;0.90;;
7661;SDS011;30314;48.184;11.510;2023-01-16T15:01:28;4.93;;;0.97;;
7661;SDS011;30314;48.184;11.510;2023-01-16T15:04:19;2.17;;;1.20;;
7661;SDS011;30314;48.184;11.510;2023-01-16T15:06:50;1.77;;;0.87;;
7661;SDS011;30314;48.184;11.510;2023-01-16T15:09:23;4.90;;;2.10;;
7661;SDS011;30314;48.184;11.510;2023-01-16T15:11:56;3.67;;;2.00;;
7661;SDS011;30314;48.184;11.510;2023-01-16T15:14:25;3.03;;;2.73;;
7661;SDS011;30314;48.184;11.510;2023-01-16T15:17:11;4.40;;;2.60;;
7661;SDS011;30314;48.184;11.510;2023-01-16T15:20:23;2.70;;;1.40;;
7661;SDS011;30314;48.184;11.510;2023-01-16T15:23:17;2.83;;;1.20;;
7661;SDS011;30314;48.184;11.510;2023-01-16T15:28:49;2.13;;;1.10;;
7661;SDS011;30314;48.184;11.510;2023-01-16T15:31:26;4.10;;;1.73;;
7661;SDS011;30314;48.184;11.510;2023-01-16T15:33:58;4.30;;;2.70;;
7661;SDS011;30314;48.184;11.510;2023-01-16T15:36:35;4.23;;;2.67;;
7661;SDS011;30314;48.184;11.510;2023-01-16T15:39:12;4.10;;;1.90;;
7661;SDS011;30314;48.184;11.510;2023-01-16T15:41:45;3.87;;;2.37;;
7661;SDS011;30314;48.184;11.510;2023-01-16T15:44:33;4.63;;;2.00;;
7661;SDS011;30314;48.184;11.510;2023-01-16T15:47:31;3.80;;;1.70;;